createdAt,value
2018-12-07T00:00:39.601Z,8.10
2018-12-07T00:03:07.401Z,9.03
2018-12-07T00:05:35.193Z,6.80
2018-12-07T00:08:03.233Z,10.80
2018-12-07T00:10:31.080Z,7.80
2018-12-07T00:12:59.060Z,7.83
2018-12-07T00:15:26.893Z,5.73
2018-12-07T00:17:55.925Z,8.30
2018-12-07T00:20:23.708Z,7.87
2018-12-07T00:22:51.580Z,5.90
2018-12-07T00:25:19.373Z,5.60
2018-12-07T00:27:47.207Z,6.20
2018-12-07T00:30:15.132Z,8.13
2018-12-07T00:32:42.944Z,7.43
2018-12-07T00:35:10.781Z,7.07
2018-12-07T00:37:38.595Z,7.53
2018-12-07T00:40:07.047Z,6.17
2018-12-07T00:42:34.979Z,7.43
2018-12-07T00:45:02.971Z,6.23
2018-12-07T00:47:30.879Z,7.73
2018-12-07T00:49:58.776Z,9.13
2018-12-07T00:52:26.608Z,7.60
2018-12-07T00:54:54.462Z,6.43
2018-12-07T00:57:22.279Z,7.13
2018-12-07T00:59:50.100Z,8.03
2018-12-07T01:02:17.917Z,4.00
2018-12-07T01:04:45.747Z,6.60
2018-12-07T01:07:13.781Z,5.07
2018-12-07T01:09:41.590Z,6.97
2018-12-07T01:12:16.805Z,5.03
2018-12-07T01:14:45.145Z,4.13
2018-12-07T01:17:12.956Z,6.60
2018-12-07T01:19:40.784Z,7.50
2018-12-07T01:22:08.585Z,5.33
2018-12-07T01:24:36.385Z,6.43
2018-12-07T01:27:04.295Z,8.60
2018-12-07T01:29:32.110Z,5.73
2018-12-07T01:32:00.577Z,4.20
2018-12-07T01:34:28.469Z,5.50
2018-12-07T01:36:56.324Z,4.67
2018-12-07T01:39:25.361Z,6.47
2018-12-07T01:41:53.189Z,6.97
2018-12-07T01:44:20.985Z,5.57
2018-12-07T01:46:48.821Z,7.40
2018-12-07T01:49:18.420Z,4.43
2018-12-07T01:51:46.614Z,6.63
2018-12-07T01:57:10.571Z,8.23
2018-12-07T01:59:38.436Z,6.87
2018-12-07T02:02:25.396Z,6.93
2018-12-07T02:04:53.254Z,8.20
2018-12-07T02:07:31.281Z,6.47
2018-12-07T02:09:59.373Z,9.30
2018-12-07T02:12:27.862Z,7.23
2018-12-07T02:14:55.707Z,7.17
2018-12-07T02:17:23.512Z,7.57
2018-12-07T02:19:51.325Z,8.47
2018-12-07T02:22:19.156Z,7.27
2018-12-07T02:24:46.969Z,7.63
2018-12-07T02:27:14.804Z,4.73
2018-12-07T02:29:42.678Z,7.30
2018-12-07T02:32:10.561Z,5.40
2018-12-07T02:34:38.555Z,6.60
2018-12-07T02:37:06.424Z,6.93
2018-12-07T02:39:34.232Z,7.30
2018-12-07T02:42:02.057Z,7.13
2018-12-07T02:44:29.891Z,8.50
2018-12-07T02:46:57.706Z,9.20
2018-12-07T02:49:25.513Z,6.07
2018-12-07T02:51:53.379Z,9.40
2018-12-07T02:54:21.208Z,7.57
2018-12-07T02:56:49.006Z,9.00
2018-12-07T02:59:16.841Z,7.87
2018-12-07T03:01:44.705Z,9.83
2018-12-07T03:04:12.512Z,7.90
2018-12-07T03:06:40.492Z,8.80
2018-12-07T03:09:08.350Z,7.20
2018-12-07T03:11:36.278Z,10.03
2018-12-07T03:14:04.257Z,7.27
2018-12-07T03:16:32.071Z,8.57
2018-12-07T03:18:59.888Z,10.43
2018-12-07T03:21:27.720Z,8.10
2018-12-07T03:23:55.523Z,7.57
2018-12-07T03:26:23.321Z,8.27
2018-12-07T03:28:51.145Z,11.20
2018-12-07T03:34:15.227Z,9.50
2018-12-07T03:36:43.081Z,9.60
2018-12-07T03:39:10.901Z,7.77
2018-12-07T03:41:38.761Z,8.57
2018-12-07T03:44:06.578Z,9.87
2018-12-07T03:46:34.675Z,10.57
2018-12-07T03:49:02.546Z,9.70
2018-12-07T03:51:30.372Z,11.97
2018-12-07T03:53:58.170Z,14.17
2018-12-07T03:56:26.006Z,11.47
2018-12-07T03:58:53.801Z,11.47
2018-12-07T04:01:21.618Z,9.50
2018-12-07T04:03:49.549Z,10.33
2018-12-07T04:06:17.392Z,10.13
2018-12-07T04:08:45.236Z,12.30
2018-12-07T04:11:14.213Z,9.60
2018-12-07T04:13:43.345Z,10.33
2018-12-07T04:16:11.159Z,15.53
2018-12-07T04:18:39.184Z,12.20
2018-12-07T04:21:07.017Z,11.97
2018-12-07T04:23:34.844Z,12.63
2018-12-07T04:26:08.767Z,14.57
2018-12-07T04:28:39.695Z,12.67
2018-12-07T04:31:08.743Z,12.53
2018-12-07T04:33:36.563Z,14.10
2018-12-07T04:36:07.566Z,15.13
2018-12-07T04:38:37.576Z,12.33
2018-12-07T04:41:05.447Z,14.97
2018-12-07T04:43:33.243Z,13.40
2018-12-07T04:46:01.069Z,15.77
2018-12-07T04:48:28.873Z,17.07
2018-12-07T04:50:56.713Z,13.40
2018-12-07T04:53:29.011Z,15.23
2018-12-07T04:55:56.818Z,17.70
2018-12-07T04:58:24.641Z,14.13
2018-12-07T05:00:52.478Z,15.27
2018-12-07T05:10:06.082Z,16.87
2018-12-07T05:12:33.935Z,15.83
2018-12-07T05:15:01.841Z,19.33
2018-12-07T05:17:29.681Z,20.37
2018-12-07T05:19:57.506Z,16.53
2018-12-07T05:22:25.337Z,22.80
2018-12-07T05:24:53.184Z,18.50
2018-12-07T05:27:21.003Z,16.50
2018-12-07T05:29:48.818Z,17.80
2018-12-07T05:32:16.693Z,19.60
2018-12-07T05:34:48.731Z,18.63
2018-12-07T05:37:30.637Z,18.33
2018-12-07T05:40:00.097Z,19.43
2018-12-07T05:42:27.921Z,18.83
2018-12-07T05:44:55.834Z,20.43
2018-12-07T05:47:23.657Z,19.03
2018-12-07T05:49:51.489Z,18.30
2018-12-07T05:52:19.280Z,21.33
2018-12-07T05:54:47.081Z,18.00
2018-12-07T05:57:14.898Z,18.80
2018-12-07T05:59:42.825Z,22.83
2018-12-07T06:02:10.727Z,18.97
2018-12-07T06:04:38.619Z,18.13
2018-12-07T06:07:06.480Z,17.17
2018-12-07T06:09:34.276Z,18.63
2018-12-07T06:12:03.045Z,20.20
2018-12-07T06:14:31.024Z,20.80
2018-12-07T06:16:58.893Z,20.67
2018-12-07T06:19:26.840Z,20.33
2018-12-07T06:21:54.625Z,21.53
2018-12-07T06:24:22.576Z,23.70
2018-12-07T06:26:50.515Z,22.60
2018-12-07T06:29:18.890Z,22.70
2018-12-07T06:31:47.083Z,17.97
2018-12-07T06:34:15.973Z,23.40
2018-12-07T06:36:43.766Z,22.20
2018-12-07T06:39:13.096Z,22.10
2018-12-07T06:41:40.936Z,18.30
2018-12-07T06:44:09.336Z,17.97
2018-12-07T06:46:38.464Z,20.37
2018-12-07T06:49:12.463Z,18.33
2018-12-07T06:51:41.908Z,26.73
2018-12-07T06:54:09.862Z,18.20
2018-12-07T06:56:37.754Z,19.33
2018-12-07T06:59:05.695Z,22.97
2018-12-07T07:01:33.524Z,25.97
2018-12-07T07:04:01.349Z,20.20
2018-12-07T07:06:29.164Z,25.27
2018-12-07T07:08:56.952Z,21.33
2018-12-07T07:11:24.788Z,20.53
2018-12-07T07:13:52.666Z,19.93
2018-12-07T07:16:23.205Z,22.13
2018-12-07T07:18:50.416Z,16.53
2018-12-07T07:21:18.341Z,21.53
2018-12-07T07:23:46.218Z,19.43
2018-12-07T07:26:14.091Z,19.43
2018-12-07T07:28:41.927Z,19.57
2018-12-07T07:31:09.772Z,18.60
2018-12-07T07:33:38.367Z,19.77
2018-12-07T07:36:06.222Z,20.97
2018-12-07T07:38:34.071Z,20.07
2018-12-07T07:41:02.917Z,23.10
2018-12-07T07:43:30.760Z,22.77
2018-12-07T07:45:58.608Z,17.73
2018-12-07T07:48:26.470Z,18.50
2018-12-07T07:50:54.383Z,20.27
2018-12-07T07:53:22.330Z,21.70
2018-12-07T07:55:50.200Z,18.50
2018-12-07T07:58:18.049Z,22.33
2018-12-07T08:00:45.912Z,20.40
2018-12-07T08:03:13.779Z,21.93
2018-12-07T08:05:41.646Z,21.70
2018-12-07T08:08:09.503Z,17.73
2018-12-07T08:10:37.370Z,21.17
2018-12-07T08:13:05.173Z,22.43
2018-12-07T08:15:32.997Z,14.10
2018-12-07T08:18:00.830Z,17.63
2018-12-07T08:20:28.645Z,18.97
2018-12-07T08:22:56.489Z,14.90
2018-12-07T08:25:24.391Z,17.17
2018-12-07T08:27:52.209Z,13.97
2018-12-07T08:30:20.025Z,12.87
2018-12-07T08:32:47.854Z,14.17
2018-12-07T08:35:15.653Z,13.83
2018-12-07T08:37:43.469Z,12.00
2018-12-07T08:40:11.476Z,9.97
2018-12-07T08:42:39.447Z,13.13
2018-12-07T08:45:08.839Z,9.57
2018-12-07T08:47:36.673Z,10.00
2018-12-07T08:50:06.311Z,12.27
2018-12-07T08:52:34.118Z,12.53
2018-12-07T08:55:01.948Z,7.77
2018-12-07T08:57:29.823Z,7.57
2018-12-07T08:59:57.637Z,9.73
2018-12-07T09:02:26.299Z,10.70
2018-12-07T09:04:54.114Z,9.63
2018-12-07T09:07:21.925Z,9.70
2018-12-07T09:09:50.586Z,8.13
2018-12-07T09:12:18.402Z,8.27
2018-12-07T09:14:46.209Z,10.63
2018-12-07T09:17:14.063Z,11.10
2018-12-07T09:19:41.900Z,10.13
2018-12-07T09:22:09.851Z,11.77
2018-12-07T09:24:37.662Z,12.40
2018-12-07T09:27:05.503Z,7.67
2018-12-07T09:29:33.379Z,8.50
2018-12-07T09:32:01.222Z,9.73
2018-12-07T09:34:29.048Z,8.77
2018-12-07T09:36:56.850Z,8.30
2018-12-07T09:39:24.681Z,7.70
2018-12-07T09:41:52.500Z,8.47
2018-12-07T09:44:21.256Z,8.40
2018-12-07T09:46:49.130Z,8.90
2018-12-07T09:49:16.949Z,10.00
2018-12-07T09:51:44.763Z,9.43
2018-12-07T09:54:12.617Z,10.33
2018-12-07T09:56:40.448Z,8.57
2018-12-07T09:59:08.298Z,7.70
2018-12-07T10:01:36.256Z,10.70
2018-12-07T10:04:04.238Z,6.70
2018-12-07T10:06:32.078Z,11.00
2018-12-07T10:08:59.938Z,8.17
2018-12-07T10:11:27.793Z,7.13
2018-12-07T10:13:55.622Z,9.73
2018-12-07T10:16:23.490Z,8.50
2018-12-07T10:18:51.410Z,8.00
2018-12-07T10:21:19.347Z,9.43
2018-12-07T10:23:48.176Z,8.07
2018-12-07T10:26:16.054Z,9.90
2018-12-07T10:28:43.918Z,6.17
2018-12-07T10:31:12.607Z,3.03
2018-12-07T10:33:40.529Z,5.23
2018-12-07T10:36:08.377Z,7.37
2018-12-07T10:38:37.111Z,7.83
2018-12-07T10:41:04.956Z,8.87
2018-12-07T10:43:32.857Z,8.93
2018-12-07T10:46:02.659Z,8.10
2018-12-07T10:48:30.516Z,11.87
2018-12-07T10:50:58.390Z,12.10
2018-12-07T10:53:26.314Z,9.87
2018-12-07T10:55:54.173Z,11.37
2018-12-07T10:58:22.029Z,10.47
2018-12-07T11:00:55.402Z,8.57
2018-12-07T11:03:28.782Z,12.03
2018-12-07T11:06:02.439Z,12.83
2018-12-07T11:08:35.892Z,10.20
2018-12-07T11:11:09.342Z,11.00
2018-12-07T11:13:42.905Z,14.90
2018-12-07T11:16:16.388Z,8.83
2018-12-07T11:18:50.516Z,12.27
2018-12-07T11:21:23.832Z,10.00
2018-12-07T11:24:58.491Z,10.97
2018-12-07T11:27:31.924Z,9.93
2018-12-07T11:30:05.711Z,11.40
2018-12-07T11:32:38.336Z,9.90
2018-12-07T11:35:12.707Z,11.73
2018-12-07T11:37:41.508Z,10.37
2018-12-07T11:40:11.498Z,11.23
2018-12-07T11:42:42.326Z,10.17
2018-12-07T11:45:10.230Z,10.37
2018-12-07T11:47:38.331Z,16.93
2018-12-07T11:50:09.662Z,12.27
2018-12-07T11:52:38.676Z,12.10
2018-12-07T11:55:06.631Z,12.60
2018-12-07T11:57:34.551Z,14.27
2018-12-07T12:00:02.748Z,11.10
2018-12-07T12:02:31.995Z,16.80
2018-12-07T12:04:59.890Z,18.13
2018-12-07T12:07:27.749Z,15.30
2018-12-07T12:09:55.699Z,15.33
2018-12-07T12:12:25.623Z,15.73
2018-12-07T12:14:58.119Z,12.43
2018-12-07T12:17:29.466Z,18.37
2018-12-07T12:20:00.839Z,18.57
2018-12-07T12:22:28.687Z,14.90
2018-12-07T12:24:58.093Z,15.37
2018-12-07T12:27:26.729Z,16.63
2018-12-07T12:29:54.581Z,14.30
2018-12-07T12:32:23.850Z,18.40
2018-12-07T12:34:52.937Z,21.17
2018-12-07T12:37:20.797Z,20.20
2018-12-07T12:39:54.241Z,19.23
2018-12-07T12:42:25.133Z,21.27
2018-12-07T12:44:54.180Z,22.93
2018-12-07T12:47:23.013Z,20.23
2018-12-07T12:49:55.932Z,21.57
2018-12-07T12:52:28.074Z,22.37
2018-12-07T12:54:59.870Z,18.80
2018-12-07T12:57:27.737Z,20.00
2018-12-07T12:59:55.600Z,20.80
2018-12-07T13:02:30.592Z,22.97
2018-12-07T13:05:02.341Z,16.67
2018-12-07T13:07:32.701Z,19.37
2018-12-07T13:10:01.405Z,16.67
2018-12-07T13:12:29.986Z,20.17
2018-12-07T13:21:45.898Z,6.67
2018-12-07T13:24:14.438Z,12.50
2018-12-07T13:26:44.625Z,8.40
2018-12-07T13:29:15.374Z,8.53
2018-12-07T13:31:46.108Z,9.90
2018-12-07T13:34:15.607Z,8.53
2018-12-07T13:36:45.554Z,12.17
2018-12-07T13:39:19.702Z,13.27
2018-12-07T13:41:50.563Z,10.57
2018-12-07T13:44:20.462Z,14.77
2018-12-07T13:46:51.408Z,7.60
2018-12-07T13:49:22.223Z,11.27
2018-12-07T13:51:50.780Z,8.27
2018-12-07T13:54:22.550Z,8.37
2018-12-07T13:56:57.302Z,9.53
2018-12-07T13:59:28.886Z,8.27
2018-12-07T14:01:58.675Z,10.40
2018-12-07T14:04:26.786Z,10.77
2018-12-07T14:06:56.752Z,13.03
2018-12-07T14:09:25.356Z,7.87
2018-12-07T14:11:55.427Z,12.17
2018-12-07T14:14:39.131Z,9.50
2018-12-07T14:17:09.107Z,10.40
2018-12-07T14:19:37.106Z,10.60
2018-12-07T14:22:06.099Z,9.57
2018-12-07T14:24:37.488Z,14.03
2018-12-07T14:27:10.255Z,10.00
2018-12-07T14:29:41.487Z,14.07
2018-12-07T14:32:11.066Z,12.87
2018-12-07T14:34:40.226Z,13.27
2018-12-07T14:37:10.050Z,10.60
2018-12-07T14:39:42.099Z,14.83
2018-12-07T14:42:11.618Z,14.47
2018-12-07T14:44:54.943Z,17.03
2018-12-07T14:47:27.744Z,14.93
2018-12-07T14:49:58.892Z,16.90
2018-12-07T14:52:27.914Z,14.20
2018-12-07T14:54:58.169Z,12.57
2018-12-07T14:57:28.422Z,15.47
2018-12-07T15:00:00.911Z,13.67
2018-12-07T15:02:32.707Z,16.30
2018-12-07T15:05:05.682Z,12.73
2018-12-07T15:07:37.253Z,13.07
2018-12-07T15:10:09.545Z,14.97
2018-12-07T15:12:39.911Z,13.80
2018-12-07T15:15:09.816Z,13.93
2018-12-07T15:17:42.310Z,14.40
2018-12-07T15:20:11.185Z,11.87
2018-12-07T15:22:41.084Z,17.87
2018-12-07T15:25:11.255Z,27.23
2018-12-07T15:27:43.463Z,13.97
2018-12-07T15:30:14.634Z,12.70
2018-12-07T15:32:45.225Z,16.20
2018-12-07T15:35:13.857Z,16.87
2018-12-07T15:37:44.151Z,11.27
2018-12-07T15:40:16.013Z,11.97
2018-12-07T15:42:45.862Z,10.27
2018-12-07T15:45:16.677Z,10.43
2018-12-07T15:47:46.235Z,12.70
2018-12-07T15:50:25.040Z,9.93
2018-12-07T15:52:57.061Z,9.77
2018-12-07T15:55:25.948Z,8.77
2018-12-07T15:58:02.175Z,13.53
2018-12-07T16:00:33.263Z,9.97
2018-12-07T16:03:03.310Z,11.97
2018-12-07T16:05:34.848Z,11.03
2018-12-07T16:08:05.326Z,12.87
2018-12-07T16:10:37.576Z,14.47
2018-12-07T16:13:07.447Z,12.47
2018-12-07T16:15:38.844Z,11.73
2018-12-07T16:18:10.182Z,8.23
2018-12-07T16:20:40.523Z,10.30
2018-12-07T16:23:13.258Z,9.27
2018-12-07T16:25:44.358Z,7.67
2018-12-07T16:28:14.391Z,10.07
2018-12-07T16:30:49.063Z,15.37
2018-12-07T16:33:31.110Z,7.87
2018-12-07T16:36:01.180Z,7.23
2018-12-07T16:38:31.676Z,7.17
2018-12-07T16:41:03.926Z,9.27
2018-12-07T16:43:36.566Z,5.60
2018-12-07T16:46:06.772Z,10.40
2018-12-07T16:48:38.603Z,8.00
2018-12-07T16:51:08.157Z,6.20
2018-12-07T16:53:44.788Z,5.37
2018-12-07T16:56:15.608Z,8.60
2018-12-07T16:58:48.224Z,5.67
2018-12-07T17:01:18.620Z,6.33
2018-12-07T17:03:51.444Z,10.40
2018-12-07T17:06:28.313Z,7.67
2018-12-07T17:08:59.152Z,7.77
2018-12-07T17:11:29.474Z,8.57
2018-12-07T17:14:01.711Z,8.93
2018-12-07T17:16:32.840Z,10.43
2018-12-07T17:19:02.384Z,9.50
2018-12-07T17:21:36.331Z,11.83
2018-12-07T17:24:08.016Z,23.27
2018-12-07T17:26:39.472Z,8.50
2018-12-07T17:29:10.799Z,9.57
2018-12-07T17:31:43.052Z,9.03
2018-12-07T17:34:13.280Z,9.63
2018-12-07T17:36:43.916Z,10.47
2018-12-07T17:39:14.014Z,10.80
2018-12-07T17:41:48.037Z,10.83
2018-12-07T17:44:19.096Z,10.73
2018-12-07T17:46:50.428Z,12.47
2018-12-07T17:49:21.675Z,16.47
2018-12-07T17:51:51.337Z,18.17
2018-12-07T17:54:26.128Z,24.07
2018-12-07T17:56:56.430Z,13.73
2018-12-07T17:59:27.599Z,11.27
2018-12-07T18:02:00.502Z,10.47
2018-12-07T18:04:34.189Z,11.93
2018-12-07T18:07:09.175Z,11.47
2018-12-07T18:09:41.950Z,9.57
2018-12-07T18:12:12.767Z,10.03
2018-12-07T18:14:45.351Z,12.40
2018-12-07T18:17:15.503Z,13.30
2018-12-07T18:19:48.975Z,17.40
2018-12-07T18:22:23.281Z,21.53
2018-12-07T18:24:56.170Z,15.23
2018-12-07T18:27:29.437Z,11.83
2018-12-07T18:30:04.594Z,13.47
2018-12-07T18:32:35.019Z,10.90
2018-12-07T18:35:10.871Z,14.77
2018-12-07T18:37:42.264Z,14.37
2018-12-07T18:40:22.874Z,15.10
2018-12-07T18:42:55.404Z,13.00
2018-12-07T18:45:29.736Z,15.20
2018-12-07T18:48:02.970Z,11.67
2018-12-07T18:50:32.982Z,13.93
2018-12-07T18:53:13.928Z,17.23
2018-12-07T18:55:46.155Z,12.20
2018-12-07T18:58:20.828Z,17.13
2018-12-07T19:00:52.908Z,14.33
2018-12-07T19:03:28.773Z,15.93
2018-12-07T19:06:04.488Z,13.73
2018-12-07T19:08:41.125Z,17.77
2018-12-07T19:11:11.323Z,12.20
2018-12-07T19:13:44.117Z,12.60
2018-12-07T19:16:17.285Z,12.50
2018-12-07T19:18:58.758Z,15.37
2018-12-07T19:21:28.990Z,18.20
2018-12-07T19:24:00.509Z,12.10
2018-12-07T19:26:30.909Z,13.13
2018-12-07T19:29:02.960Z,12.37
2018-12-07T19:31:34.988Z,13.17
2018-12-07T19:34:06.006Z,12.17
2018-12-07T19:36:36.218Z,14.37
2018-12-07T19:39:10.663Z,13.23
2018-12-07T19:41:43.506Z,15.83
2018-12-07T19:44:17.111Z,14.67
2018-12-07T19:46:47.851Z,16.43
2018-12-07T19:49:16.890Z,14.57
2018-12-07T19:52:00.187Z,14.87
2018-12-07T19:54:34.234Z,13.40
2018-12-07T19:57:04.313Z,17.57
2018-12-07T19:59:35.261Z,16.23
2018-12-07T20:02:04.102Z,12.50
2018-12-07T20:04:36.625Z,13.17
2018-12-07T20:07:11.128Z,15.97
2018-12-07T20:09:46.207Z,10.13
2018-12-07T20:12:19.442Z,12.53
2018-12-07T20:14:49.433Z,14.17
2018-12-07T20:17:19.062Z,16.13
2018-12-07T20:19:50.361Z,17.17
2018-12-07T20:22:25.509Z,14.50
2018-12-07T20:24:56.429Z,20.03
2018-12-07T20:27:25.944Z,15.00
2018-12-07T20:29:56.840Z,16.97
2018-12-07T20:32:27.165Z,22.37
2018-12-07T20:34:57.589Z,18.10
2018-12-07T20:37:29.727Z,19.57
2018-12-07T20:40:02.641Z,17.20
2018-12-07T20:42:31.991Z,19.10
2018-12-07T20:45:01.944Z,16.33
2018-12-07T20:47:33.937Z,19.37
2018-12-07T20:50:06.168Z,20.27
2018-12-07T20:52:38.142Z,17.60
2018-12-07T20:55:08.044Z,20.93
2018-12-07T20:57:37.654Z,19.67
2018-12-07T21:00:10.568Z,16.67
2018-12-07T21:02:41.032Z,17.20
2018-12-07T21:05:55.156Z,17.63
2018-12-07T21:08:51.115Z,19.27
2018-12-07T21:11:30.238Z,17.13
2018-12-07T21:14:13.234Z,22.77
2018-12-07T21:17:05.148Z,19.07
2018-12-07T21:19:39.537Z,19.50
2018-12-07T21:22:09.679Z,17.83
2018-12-07T21:24:40.047Z,17.87
2018-12-07T21:27:10.213Z,20.63
2018-12-07T21:29:40.199Z,18.07
2018-12-07T21:32:22.552Z,17.40
2018-12-07T21:34:58.884Z,21.17
2018-12-07T21:37:31.785Z,17.90
2018-12-07T21:40:13.200Z,16.33
2018-12-07T21:42:44.834Z,22.70
2018-12-07T21:45:14.512Z,17.87
2018-12-07T21:48:50.461Z,18.50
2018-12-07T21:51:32.422Z,18.70
2018-12-07T21:54:04.284Z,21.63
2018-12-07T21:56:33.670Z,18.10
2018-12-07T21:59:05.457Z,20.50
2018-12-07T22:01:35.554Z,22.00
2018-12-07T22:04:07.385Z,22.37
2018-12-07T22:06:36.164Z,21.57
2018-12-07T22:09:08.633Z,21.13
2018-12-07T22:11:41.137Z,19.27
2018-12-07T22:14:09.813Z,18.50
2018-12-07T22:16:41.912Z,20.37
2018-12-07T22:19:10.904Z,16.87
2018-12-07T22:21:40.304Z,19.83
2018-12-07T22:24:13.592Z,20.73
2018-12-07T22:26:44.403Z,22.23
2018-12-07T22:29:15.486Z,18.03
2018-12-07T22:31:46.012Z,17.80
2018-12-07T22:34:19.021Z,18.23
2018-12-07T22:36:48.425Z,17.53
2018-12-07T22:39:41.855Z,22.23
2018-12-07T22:42:13.378Z,21.67
2018-12-07T22:44:43.695Z,20.40
2018-12-07T22:47:12.414Z,21.10
2018-12-07T22:49:44.669Z,22.00
2018-12-07T22:52:16.231Z,19.40
2018-12-07T22:54:44.459Z,21.73
2018-12-07T22:57:15.508Z,17.47
2018-12-07T22:59:44.530Z,22.37
2018-12-07T23:02:14.122Z,21.13
2018-12-07T23:04:43.888Z,20.67
2018-12-07T23:07:13.660Z,21.93
2018-12-07T23:09:46.949Z,20.50
2018-12-07T23:12:18.660Z,19.77
2018-12-07T23:14:51.798Z,18.70
2018-12-07T23:17:21.801Z,19.23
2018-12-07T23:19:51.656Z,19.60
2018-12-07T23:22:20.936Z,17.23
2018-12-07T23:24:52.744Z,17.33
2018-12-07T23:27:23.057Z,19.07
2018-12-07T23:29:56.288Z,21.97
2018-12-07T23:32:24.697Z,19.67
2018-12-07T23:34:54.301Z,18.10
2018-12-07T23:37:22.840Z,20.37
2018-12-07T23:39:54.537Z,19.77
2018-12-07T23:42:24.045Z,18.13
2018-12-07T23:44:52.481Z,18.63
2018-12-07T23:47:21.766Z,17.13
2018-12-07T23:49:51.224Z,16.27
2018-12-07T23:52:19.081Z,17.47
2018-12-07T23:54:49.587Z,18.10
2018-12-07T23:57:18.929Z,17.23
2018-12-07T23:59:47.436Z,14.23
